createdAt,value
2018-12-26T00:00:27.481Z,99.90
2018-12-26T00:02:42.592Z,99.90
2018-12-26T00:04:57.652Z,99.90
2018-12-26T00:07:12.552Z,99.90
2018-12-26T00:09:27.696Z,99.90
2018-12-26T00:11:42.365Z,99.90
2018-12-26T00:13:57.312Z,99.90
2018-12-26T00:16:12.364Z,99.90
2018-12-26T00:18:27.428Z,99.90
2018-12-26T00:20:42.204Z,99.90
2018-12-26T00:22:57.192Z,99.90
2018-12-26T00:25:12.116Z,99.90
2018-12-26T00:27:27.048Z,99.90
2018-12-26T00:29:41.948Z,99.90
2018-12-26T00:31:56.853Z,99.90
2018-12-26T00:34:11.634Z,99.90
2018-12-26T00:36:26.412Z,99.90
2018-12-26T00:38:41.743Z,99.90
2018-12-26T00:40:56.532Z,99.90
2018-12-26T00:43:11.431Z,99.70
2018-12-26T00:45:26.608Z,99.60
2018-12-26T00:47:41.820Z,99.90
2018-12-26T00:49:56.933Z,99.30
2018-12-26T00:52:11.704Z,99.60
2018-12-26T00:54:26.444Z,99.60
2018-12-26T00:56:41.381Z,99.30
2018-12-26T00:58:56.156Z,99.30
2018-12-26T01:01:11.509Z,99.60
2018-12-26T01:03:26.362Z,99.70
2018-12-26T01:05:41.375Z,99.30
2018-12-26T01:07:56.313Z,99.60
2018-12-26T01:10:11.144Z,99.30
2018-12-26T01:12:26.104Z,98.70
2018-12-26T01:14:40.640Z,99.50
2018-12-26T01:16:55.638Z,99.10
2018-12-26T01:19:10.453Z,99.00
2018-12-26T01:21:24.560Z,98.90
2018-12-26T01:23:39.736Z,99.00
2018-12-26T01:25:54.477Z,98.60
2018-12-26T01:28:09.557Z,98.50
2018-12-26T01:30:24.304Z,99.10
2018-12-26T01:32:39.237Z,98.80
2018-12-26T01:34:53.940Z,98.50
2018-12-26T01:37:09.112Z,98.80
2018-12-26T01:39:24.096Z,98.90
2018-12-26T01:41:38.735Z,98.80
2018-12-26T01:43:53.834Z,98.30
2018-12-26T01:46:08.942Z,99.10
2018-12-26T01:48:24.048Z,98.70
2018-12-26T01:50:38.980Z,99.00
2018-12-26T01:52:54.065Z,99.00
2018-12-26T01:55:08.964Z,99.60
2018-12-26T01:57:23.564Z,99.00
2018-12-26T01:59:38.512Z,99.00
2018-12-26T02:01:53.504Z,99.20
2018-12-26T02:04:08.280Z,99.30
2018-12-26T02:06:23.100Z,99.50
2018-12-26T02:08:38.117Z,99.20
2018-12-26T02:10:52.916Z,98.40
2018-12-26T02:13:07.757Z,98.70
2018-12-26T02:15:22.613Z,99.10
2018-12-26T02:17:37.609Z,99.90
2018-12-26T02:19:52.648Z,99.20
2018-12-26T02:22:07.640Z,99.70
2018-12-26T02:24:22.248Z,99.20
2018-12-26T02:26:37.527Z,99.20
2018-12-26T02:28:52.424Z,99.00
2018-12-26T02:31:07.969Z,99.20
2018-12-26T02:33:22.671Z,99.20
2018-12-26T02:35:37.608Z,99.30
2018-12-26T02:37:52.170Z,99.40
2018-12-26T02:40:07.334Z,99.50
2018-12-26T02:42:22.101Z,99.90
2018-12-26T02:44:36.812Z,99.90
2018-12-26T02:46:51.961Z,99.60
2018-12-26T02:49:06.510Z,99.90
2018-12-26T02:51:21.409Z,99.80
2018-12-26T02:53:36.314Z,99.90
2018-12-26T02:55:51.257Z,99.50
2018-12-26T02:58:06.241Z,99.90
2018-12-26T03:00:21.231Z,99.90
2018-12-26T03:02:36.269Z,99.80
2018-12-26T03:04:51.257Z,99.90
2018-12-26T03:07:06.207Z,99.80
2018-12-26T03:09:21.053Z,99.80
2018-12-26T03:11:35.976Z,99.70
2018-12-26T03:13:50.955Z,99.50
2018-12-26T03:16:05.974Z,99.80
2018-12-26T03:18:20.841Z,99.90
2018-12-26T03:20:35.858Z,99.90
2018-12-26T03:25:30.668Z,99.90
2018-12-26T03:27:45.556Z,99.90
2018-12-26T03:30:00.429Z,99.90
2018-12-26T03:32:15.614Z,99.90
2018-12-26T03:34:30.729Z,99.90
2018-12-26T03:36:45.414Z,99.90
2018-12-26T03:39:00.360Z,99.90
2018-12-26T03:41:15.257Z,99.90
2018-12-26T03:43:30.174Z,99.90
2018-12-26T03:45:44.978Z,99.90
2018-12-26T03:47:59.825Z,99.90
2018-12-26T03:50:14.852Z,99.90
2018-12-26T03:55:09.697Z,99.90
2018-12-26T03:57:24.796Z,99.90
2018-12-26T03:59:39.790Z,99.90
2018-12-26T04:01:54.500Z,99.90
2018-12-26T04:04:09.468Z,99.90
2018-12-26T04:06:24.425Z,99.90
2018-12-26T04:08:39.454Z,99.90
2018-12-26T04:10:54.234Z,99.90
2018-12-26T04:13:09.012Z,99.90
2018-12-26T04:15:23.847Z,99.90
2018-12-26T04:17:39.101Z,99.90
2018-12-26T04:19:53.637Z,99.90
2018-12-26T04:22:08.285Z,99.90
2018-12-26T04:24:23.553Z,99.90
2018-12-26T04:26:38.413Z,99.90
2018-12-26T04:28:53.420Z,99.90
2018-12-26T04:31:08.119Z,99.90
2018-12-26T04:33:23.145Z,99.90
2018-12-26T04:35:37.981Z,99.90
2018-12-26T04:37:52.845Z,99.90
2018-12-26T04:40:07.882Z,99.90
2018-12-26T04:42:22.899Z,99.90
2018-12-26T04:44:37.579Z,99.90
2018-12-26T04:46:52.484Z,99.90
2018-12-26T04:49:07.436Z,99.90
2018-12-26T04:51:22.170Z,99.90
2018-12-26T04:53:37.160Z,99.90
2018-12-26T04:55:52.018Z,99.90
2018-12-26T04:58:07.104Z,99.90
2018-12-26T05:00:21.772Z,99.90
2018-12-26T05:02:36.891Z,99.90
2018-12-26T05:04:51.531Z,99.90
2018-12-26T05:07:06.704Z,99.90
2018-12-26T05:09:21.155Z,99.90
2018-12-26T05:11:36.133Z,99.90
2018-12-26T05:13:50.997Z,99.90
2018-12-26T05:16:05.992Z,99.90
2018-12-26T05:18:20.650Z,99.90
2018-12-26T05:20:35.693Z,99.90
2018-12-26T05:22:50.665Z,99.90
2018-12-26T05:25:05.572Z,99.90
2018-12-26T05:27:20.532Z,99.90
2018-12-26T05:29:35.679Z,99.90
2018-12-26T05:31:50.218Z,99.90
2018-12-26T05:34:05.220Z,99.90
2018-12-26T05:36:20.057Z,99.90
2018-12-26T05:38:34.936Z,99.90
2018-12-26T05:40:49.776Z,99.90
2018-12-26T05:43:04.680Z,99.90
2018-12-26T05:45:19.609Z,99.90
2018-12-26T05:47:34.936Z,99.90
2018-12-26T05:49:49.772Z,99.90
2018-12-26T05:52:04.580Z,99.90
2018-12-26T05:54:19.440Z,99.90
2018-12-26T05:56:34.420Z,99.90
2018-12-26T05:58:49.448Z,99.90
2018-12-26T06:01:04.449Z,99.90
2018-12-26T06:03:19.568Z,99.90
2018-12-26T06:05:34.428Z,99.90
2018-12-26T06:07:49.348Z,99.90
2018-12-26T06:12:44.600Z,99.90
2018-12-26T06:14:59.636Z,99.90
2018-12-26T06:17:14.512Z,99.90
2018-12-26T06:19:29.596Z,99.90
2018-12-26T06:21:44.772Z,99.90
2018-12-26T06:23:59.396Z,99.90
2018-12-26T06:26:14.092Z,99.90
2018-12-26T06:28:29.041Z,99.90
2018-12-26T06:30:44.120Z,99.90
2018-12-26T06:32:58.936Z,99.90
2018-12-26T06:37:53.952Z,99.90
2018-12-26T06:40:09.136Z,99.90
2018-12-26T06:42:23.636Z,99.90
2018-12-26T06:44:38.549Z,99.90
2018-12-26T06:46:53.420Z,99.90
2018-12-26T06:49:08.385Z,99.90
2018-12-26T06:51:23.372Z,99.90
2018-12-26T06:53:38.308Z,99.90
2018-12-26T06:55:53.541Z,99.90
2018-12-26T06:58:08.261Z,99.90
2018-12-26T07:00:23.364Z,99.90
2018-12-26T07:02:37.650Z,99.90
2018-12-26T07:04:52.668Z,99.90
2018-12-26T07:07:07.731Z,99.90
2018-12-26T07:09:22.613Z,99.90
2018-12-26T07:11:37.577Z,99.90
2018-12-26T07:13:52.418Z,99.90
2018-12-26T07:16:07.728Z,99.90
2018-12-26T07:18:22.500Z,99.90
2018-12-26T07:20:37.548Z,99.90
2018-12-26T07:22:52.456Z,99.90
2018-12-26T07:25:07.400Z,99.90
2018-12-26T07:27:22.381Z,99.90
2018-12-26T07:29:37.174Z,99.90
2018-12-26T07:31:52.195Z,99.90
2018-12-26T07:34:06.990Z,99.90
2018-12-26T07:36:21.820Z,99.90
2018-12-26T07:38:36.933Z,99.90
2018-12-26T07:40:51.564Z,99.90
2018-12-26T07:43:06.672Z,99.90
2018-12-26T07:45:21.489Z,99.90
2018-12-26T07:47:36.344Z,99.90
2018-12-26T07:49:51.225Z,99.90
2018-12-26T07:52:06.325Z,99.90
2018-12-26T07:54:21.220Z,99.90
2018-12-26T07:56:35.976Z,99.90
2018-12-26T07:58:50.940Z,99.90
2018-12-26T08:01:05.888Z,99.90
2018-12-26T08:03:20.772Z,99.90
2018-12-26T08:05:35.732Z,99.90
2018-12-26T08:07:50.548Z,99.90
2018-12-26T08:10:05.316Z,99.90
2018-12-26T08:12:20.461Z,99.90
2018-12-26T08:14:35.244Z,99.90
2018-12-26T08:16:50.011Z,99.90
2018-12-26T08:19:05.012Z,99.90
2018-12-26T08:21:19.856Z,99.90
2018-12-26T08:23:33.988Z,99.90
2018-12-26T08:25:49.008Z,99.90
2018-12-26T08:28:03.972Z,99.90
2018-12-26T08:30:19.049Z,99.90
2018-12-26T08:32:34.161Z,99.90
2018-12-26T08:34:48.945Z,99.90
2018-12-26T08:37:03.982Z,99.90
2018-12-26T08:39:18.133Z,99.90
2018-12-26T08:41:33.117Z,99.90
2018-12-26T08:43:48.892Z,99.90
2018-12-26T08:46:04.012Z,99.90
2018-12-26T08:51:05.880Z,99.90
2018-12-26T08:53:20.868Z,99.90
2018-12-26T08:55:36.129Z,99.90
2018-12-26T08:57:50.876Z,99.90
2018-12-26T09:00:05.849Z,99.90
2018-12-26T09:02:20.718Z,99.90
2018-12-26T09:04:35.693Z,99.90
2018-12-26T09:06:50.626Z,99.90
2018-12-26T09:09:05.480Z,99.90
2018-12-26T09:11:20.401Z,99.90
2018-12-26T09:13:35.312Z,99.90
2018-12-26T09:15:50.280Z,99.90
2018-12-26T09:18:05.224Z,99.90
2018-12-26T09:20:20.386Z,99.90
2018-12-26T09:22:35.253Z,99.90
2018-12-26T09:24:50.090Z,99.90
2018-12-26T09:27:05.172Z,99.90
2018-12-26T09:29:20.445Z,99.90
2018-12-26T09:31:35.361Z,99.90
2018-12-26T09:33:50.100Z,99.90
2018-12-26T09:36:05.105Z,99.90
2018-12-26T09:38:20.005Z,99.90
2018-12-26T09:40:35.061Z,99.90
2018-12-26T09:42:50.084Z,99.90
2018-12-26T09:45:05.133Z,99.90
2018-12-26T09:47:19.965Z,99.90
2018-12-26T09:49:34.877Z,99.90
2018-12-26T09:51:49.808Z,99.90
2018-12-26T09:54:04.774Z,99.90
2018-12-26T09:56:19.668Z,99.90
2018-12-26T09:58:34.478Z,99.90
2018-12-26T10:00:49.341Z,99.90
2018-12-26T10:03:04.271Z,99.90
2018-12-26T10:05:19.297Z,99.90
2018-12-26T10:07:34.195Z,99.90
2018-12-26T10:09:49.008Z,99.90
2018-12-26T10:12:03.894Z,99.90
2018-12-26T10:14:18.623Z,99.90
2018-12-26T10:19:20.657Z,99.90
2018-12-26T10:21:35.564Z,99.90
2018-12-26T10:23:50.360Z,99.90
2018-12-26T10:26:05.143Z,99.90
2018-12-26T10:28:20.041Z,99.90
2018-12-26T10:30:34.913Z,99.90
2018-12-26T10:35:29.831Z,99.90
2018-12-26T10:37:44.718Z,99.90
2018-12-26T10:39:59.912Z,99.90
2018-12-26T10:42:14.567Z,99.90
2018-12-26T10:44:29.493Z,99.90
2018-12-26T10:46:44.413Z,99.90
2018-12-26T10:48:59.385Z,99.90
2018-12-26T10:51:14.380Z,99.90
2018-12-26T10:53:29.468Z,99.90
2018-12-26T10:55:44.397Z,99.90
2018-12-26T10:57:59.304Z,99.90
2018-12-26T11:00:14.340Z,99.90
2018-12-26T11:02:29.153Z,99.90
2018-12-26T11:04:44.313Z,99.90
2018-12-26T11:06:58.884Z,99.90
2018-12-26T11:09:13.797Z,99.90
2018-12-26T11:11:28.725Z,99.90
2018-12-26T11:13:43.769Z,99.90
2018-12-26T11:15:58.629Z,99.90
2018-12-26T11:18:13.306Z,99.90
2018-12-26T11:20:28.399Z,99.90
2018-12-26T11:22:43.233Z,99.90
2018-12-26T11:24:58.344Z,99.90
2018-12-26T11:27:13.113Z,99.90
2018-12-26T11:29:27.980Z,99.90
2018-12-26T11:31:42.668Z,99.90
2018-12-26T11:33:57.931Z,99.90
2018-12-26T11:36:12.514Z,99.90
2018-12-26T11:38:27.396Z,99.90
2018-12-26T11:40:42.109Z,99.90
2018-12-26T11:42:56.909Z,99.90
2018-12-26T11:45:11.864Z,99.90
2018-12-26T11:47:26.593Z,99.90
2018-12-26T11:49:41.384Z,99.90
2018-12-26T11:51:56.437Z,99.90
2018-12-26T11:54:11.332Z,99.90
2018-12-26T11:56:26.228Z,99.90
2018-12-26T11:58:41.221Z,99.90
2018-12-26T12:00:56.037Z,99.90
2018-12-26T12:03:11.033Z,99.90
2018-12-26T12:05:25.888Z,99.90
2018-12-26T12:07:40.901Z,99.90
2018-12-26T12:09:55.896Z,99.90
2018-12-26T12:12:10.984Z,99.90
2018-12-26T12:14:25.992Z,99.90
2018-12-26T12:16:40.823Z,99.90
2018-12-26T12:18:55.608Z,99.90
2018-12-26T12:21:10.581Z,99.90
2018-12-26T12:23:25.588Z,99.90
2018-12-26T12:25:40.528Z,99.90
2018-12-26T12:27:55.340Z,99.90
2018-12-26T12:30:10.682Z,99.90
2018-12-26T12:32:25.456Z,99.90
2018-12-26T12:34:40.373Z,99.90
2018-12-26T12:36:55.250Z,99.90
2018-12-26T12:39:10.133Z,99.90
2018-12-26T12:41:25.249Z,99.90
2018-12-26T12:43:40.018Z,99.90
2018-12-26T12:45:54.937Z,99.90
2018-12-26T12:48:09.791Z,99.90
2018-12-26T12:50:24.729Z,99.90
2018-12-26T12:52:39.736Z,99.90
2018-12-26T12:54:54.769Z,99.90
2018-12-26T12:57:09.713Z,99.90
2018-12-26T12:59:24.701Z,99.90
2018-12-26T13:01:39.680Z,99.90
2018-12-26T13:03:54.790Z,99.90
2018-12-26T13:06:09.657Z,99.90
2018-12-26T13:08:24.543Z,99.90
2018-12-26T13:10:39.333Z,99.90
2018-12-26T13:12:54.129Z,99.90
2018-12-26T13:15:08.928Z,99.90
2018-12-26T13:17:23.944Z,99.90
2018-12-26T13:19:38.832Z,99.90
2018-12-26T13:21:53.864Z,99.90
2018-12-26T13:26:55.950Z,99.90
2018-12-26T13:29:11.004Z,99.90
2018-12-26T13:31:25.994Z,99.90
2018-12-26T13:33:40.881Z,99.90
2018-12-26T13:35:55.876Z,99.90
2018-12-26T13:38:10.808Z,99.90
2018-12-26T13:40:25.716Z,99.90
2018-12-26T13:42:40.584Z,99.90
2018-12-26T13:44:55.460Z,99.90
2018-12-26T13:47:10.438Z,99.90
2018-12-26T13:49:25.373Z,99.90
2018-12-26T13:57:01.568Z,99.90
2018-12-26T13:59:16.192Z,99.90
2018-12-26T14:01:30.936Z,99.90
2018-12-26T14:03:45.848Z,99.90
2018-12-26T14:05:59.945Z,99.90
2018-12-26T14:08:14.676Z,99.90
2018-12-26T14:10:29.628Z,99.90
2018-12-26T14:12:44.428Z,99.90
2018-12-26T14:14:59.397Z,99.90
2018-12-26T14:17:14.448Z,99.90
2018-12-26T14:19:29.215Z,99.90
2018-12-26T14:21:44.185Z,99.90
2018-12-26T14:23:59.129Z,99.90
2018-12-26T14:26:13.997Z,99.90
2018-12-26T14:28:28.835Z,99.90
2018-12-26T14:30:43.821Z,99.90
2018-12-26T14:32:58.593Z,99.90
2018-12-26T14:35:13.412Z,99.90
2018-12-26T14:37:28.321Z,99.90
2018-12-26T14:39:43.057Z,99.90
2018-12-26T14:41:58.057Z,99.90
2018-12-26T14:44:13.760Z,99.90
2018-12-26T14:46:28.980Z,99.90
2018-12-26T14:48:43.905Z,99.90
2018-12-26T14:50:58.732Z,99.90
2018-12-26T14:53:13.668Z,99.90
2018-12-26T14:55:28.553Z,99.90
2018-12-26T14:57:43.860Z,99.90
2018-12-26T14:59:58.560Z,99.90
2018-12-26T15:02:13.503Z,99.90
2018-12-26T15:04:28.478Z,99.90
2018-12-26T15:06:43.193Z,99.90
2018-12-26T15:11:37.956Z,99.90
2018-12-26T15:13:52.911Z,99.90
2018-12-26T15:16:07.740Z,99.90
2018-12-26T15:18:22.521Z,99.90
2018-12-26T15:20:37.508Z,99.90
2018-12-26T15:22:52.765Z,99.90
2018-12-26T15:25:07.293Z,99.90
2018-12-26T15:27:22.072Z,99.90
2018-12-26T15:29:37.088Z,99.90
2018-12-26T15:31:52.022Z,99.90
2018-12-26T15:34:07.001Z,99.90
2018-12-26T15:36:21.941Z,99.90
2018-12-26T15:38:36.772Z,99.90
2018-12-26T15:40:51.640Z,99.90
2018-12-26T15:43:06.417Z,99.90
2018-12-26T15:45:21.250Z,99.90
2018-12-26T15:47:36.162Z,99.90
2018-12-26T15:49:51.444Z,99.90
2018-12-26T15:52:06.482Z,99.90
2018-12-26T15:54:21.457Z,99.90
2018-12-26T15:56:36.021Z,99.90
2018-12-26T15:58:53.022Z,99.90
2018-12-26T16:01:08.224Z,99.90
2018-12-26T16:03:23.173Z,99.90
2018-12-26T16:05:37.777Z,99.90
2018-12-26T16:07:52.740Z,99.90
2018-12-26T16:10:07.820Z,99.90
2018-12-26T16:12:22.715Z,99.90
2018-12-26T16:14:37.560Z,99.90
2018-12-26T16:16:52.541Z,99.90
2018-12-26T16:19:07.524Z,99.90
2018-12-26T16:21:22.808Z,99.90
2018-12-26T16:23:37.313Z,99.90
2018-12-26T16:25:52.336Z,99.90
2018-12-26T16:28:07.318Z,99.90
2018-12-26T16:30:21.497Z,99.90
2018-12-26T16:32:36.200Z,99.90
2018-12-26T16:34:51.100Z,99.90
2018-12-26T16:37:05.825Z,99.90
2018-12-26T16:39:20.849Z,99.90
2018-12-26T16:41:35.988Z,99.90
2018-12-26T16:43:50.648Z,99.90
2018-12-26T16:46:05.529Z,99.90
2018-12-26T16:48:20.360Z,99.90
2018-12-26T16:50:35.406Z,99.90
2018-12-26T16:52:50.480Z,99.90
2018-12-26T16:55:05.365Z,99.90
2018-12-26T16:57:19.469Z,99.90
2018-12-26T16:59:34.191Z,99.90
2018-12-26T17:01:49.204Z,99.90
2018-12-26T17:04:04.228Z,99.90
2018-12-26T17:06:19.112Z,99.90
2018-12-26T17:08:33.864Z,99.90
2018-12-26T17:10:49.033Z,99.90
2018-12-26T17:13:04.108Z,99.90
2018-12-26T17:15:19.258Z,99.90
2018-12-26T17:17:38.200Z,99.90
2018-12-26T17:19:52.984Z,99.90
2018-12-26T17:22:07.955Z,99.90
2018-12-26T17:24:22.777Z,99.90
2018-12-26T17:26:37.749Z,99.90
2018-12-26T17:28:52.597Z,99.90
2018-12-26T17:31:07.450Z,99.90
2018-12-26T17:33:22.104Z,99.90
2018-12-26T17:35:37.140Z,99.90
2018-12-26T17:37:52.025Z,99.90
2018-12-26T17:40:06.881Z,99.90
2018-12-26T17:42:21.762Z,99.90
2018-12-26T17:44:36.844Z,99.90
2018-12-26T17:46:51.491Z,99.90
2018-12-26T17:49:06.439Z,99.90
2018-12-26T17:51:21.397Z,99.90
2018-12-26T17:53:36.176Z,99.90
2018-12-26T17:55:51.180Z,99.90
2018-12-26T17:58:05.778Z,99.90
2018-12-26T18:00:20.528Z,99.90
2018-12-26T18:02:35.625Z,99.90
2018-12-26T18:04:50.284Z,99.90
2018-12-26T18:07:05.272Z,99.90
2018-12-26T18:12:11.721Z,99.90
2018-12-26T18:14:24.049Z,99.90
2018-12-26T18:16:39.076Z,99.90
2018-12-26T18:18:53.788Z,99.90
2018-12-26T18:21:08.771Z,99.90
2018-12-26T18:23:23.002Z,99.90
2018-12-26T18:25:37.963Z,99.90
2018-12-26T18:27:52.962Z,99.90
2018-12-26T18:30:07.981Z,99.90
2018-12-26T18:32:22.800Z,99.90
2018-12-26T18:34:38.017Z,99.90
2018-12-26T18:39:32.780Z,99.90
2018-12-26T18:41:47.660Z,99.90
2018-12-26T18:44:02.543Z,99.90
2018-12-26T18:46:17.604Z,99.90
2018-12-26T18:48:32.546Z,99.90
2018-12-26T18:50:47.409Z,99.90
2018-12-26T18:53:02.277Z,99.90
2018-12-26T18:55:17.188Z,99.90
2018-12-26T18:57:31.537Z,99.90
2018-12-26T18:59:46.092Z,99.90
2018-12-26T19:02:01.029Z,99.90
2018-12-26T19:04:15.861Z,99.90
2018-12-26T19:06:30.752Z,99.90
2018-12-26T19:08:45.613Z,99.90
2018-12-26T19:11:00.573Z,99.90
2018-12-26T19:13:15.464Z,99.90
2018-12-26T19:15:30.192Z,99.90
2018-12-26T19:17:45.264Z,99.90
2018-12-26T19:20:00.004Z,99.90
2018-12-26T19:22:14.585Z,99.90
2018-12-26T19:24:29.320Z,99.90
2018-12-26T19:26:43.548Z,99.90
2018-12-26T19:28:58.460Z,99.90
2018-12-26T19:31:13.500Z,99.90
2018-12-26T19:33:29.781Z,99.90
2018-12-26T19:35:44.440Z,99.90
2018-12-26T19:37:59.528Z,99.90
2018-12-26T19:40:14.157Z,99.90
2018-12-26T19:42:37.149Z,99.90
2018-12-26T19:44:45.168Z,99.90
2018-12-26T19:47:00.305Z,99.90
2018-12-26T19:49:15.117Z,99.90
2018-12-26T19:51:30.056Z,99.90
2018-12-26T19:53:44.936Z,99.90
2018-12-26T19:56:00.132Z,99.90
2018-12-26T19:58:14.740Z,99.90
2018-12-26T20:00:29.465Z,99.90
2018-12-26T20:08:01.189Z,99.90
2018-12-26T20:10:16.184Z,99.90
2018-12-26T20:12:31.105Z,99.90
2018-12-26T20:14:46.004Z,99.90
2018-12-26T20:17:00.929Z,99.90
2018-12-26T20:19:15.809Z,99.90
2018-12-26T20:21:30.610Z,99.90
2018-12-26T20:23:45.598Z,99.90
2018-12-26T20:26:00.728Z,99.90
2018-12-26T20:28:15.698Z,99.90
2018-12-26T20:30:30.437Z,99.90
2018-12-26T20:32:45.570Z,99.90
2018-12-26T20:35:00.291Z,99.90
2018-12-26T20:37:14.977Z,99.90
2018-12-26T20:39:30.196Z,99.90
2018-12-26T20:41:45.217Z,99.90
2018-12-26T20:44:00.217Z,99.90
2018-12-26T20:46:15.078Z,99.90
2018-12-26T20:48:30.257Z,99.90
2018-12-26T20:50:45.138Z,99.90
2018-12-26T20:53:00.192Z,99.90
2018-12-26T20:55:15.272Z,99.90
2018-12-26T20:57:30.253Z,99.90
2018-12-26T20:59:45.767Z,99.90
2018-12-26T21:02:05.634Z,99.90
2018-12-26T21:04:17.165Z,99.90
2018-12-26T21:06:32.221Z,99.90
2018-12-26T21:08:47.188Z,99.90
2018-12-26T21:11:02.061Z,99.90
2018-12-26T21:13:17.020Z,99.90
2018-12-26T21:15:32.112Z,99.90
2018-12-26T21:20:34.097Z,99.90
2018-12-26T21:22:48.957Z,99.90
2018-12-26T21:25:03.932Z,99.90
2018-12-26T21:27:18.528Z,99.90
2018-12-26T21:29:33.704Z,99.90
2018-12-26T21:31:48.364Z,99.90
2018-12-26T21:34:03.218Z,99.90
2018-12-26T21:36:18.249Z,99.90
2018-12-26T21:38:33.128Z,99.90
2018-12-26T21:40:47.953Z,99.90
2018-12-26T21:43:02.782Z,99.90
2018-12-26T21:45:17.633Z,99.90
2018-12-26T21:47:32.521Z,99.90
2018-12-26T21:49:47.756Z,99.90
2018-12-26T21:52:02.389Z,99.90
2018-12-26T21:54:17.209Z,99.90
2018-12-26T21:56:32.133Z,99.90
2018-12-26T21:58:47.357Z,99.90
2018-12-26T22:01:02.226Z,99.90
2018-12-26T22:03:17.101Z,99.90
2018-12-26T22:05:32.027Z,99.90
2018-12-26T22:07:46.953Z,99.90
2018-12-26T22:10:01.696Z,99.90
2018-12-26T22:12:16.708Z,99.90
2018-12-26T22:14:31.788Z,99.90
2018-12-26T22:16:46.352Z,99.90
2018-12-26T22:19:01.372Z,99.90
2018-12-26T22:21:16.324Z,99.90
2018-12-26T22:23:31.077Z,99.90
2018-12-26T22:25:46.116Z,99.90
2018-12-26T22:28:01.204Z,99.90
2018-12-26T22:30:15.992Z,99.90
2018-12-26T22:32:31.062Z,99.90
2018-12-26T22:34:45.765Z,99.90
2018-12-26T22:37:00.833Z,99.90
2018-12-26T22:39:15.721Z,99.90
2018-12-26T22:41:30.737Z,99.90
2018-12-26T22:43:45.520Z,99.90
2018-12-26T22:46:00.340Z,99.90
2018-12-26T22:48:15.708Z,99.90
2018-12-26T22:50:30.655Z,99.90
2018-12-26T22:52:45.725Z,99.90
2018-12-26T22:55:00.372Z,99.90
2018-12-26T22:57:15.381Z,99.90
2018-12-26T22:59:30.260Z,99.90
2018-12-26T23:01:45.140Z,99.90
2018-12-26T23:04:00.324Z,99.90
2018-12-26T23:06:14.881Z,99.90
2018-12-26T23:08:29.997Z,99.90
2018-12-26T23:10:44.921Z,99.90
2018-12-26T23:13:00.110Z,99.90
2018-12-26T23:15:14.634Z,99.90
2018-12-26T23:17:29.240Z,99.90
2018-12-26T23:19:44.200Z,99.90
2018-12-26T23:21:59.149Z,99.90
2018-12-26T23:24:13.969Z,99.90
2018-12-26T23:26:28.817Z,99.90
2018-12-26T23:28:43.936Z,99.90
2018-12-26T23:30:58.658Z,99.90
2018-12-26T23:33:13.624Z,99.90
2018-12-26T23:35:28.636Z,99.90
2018-12-26T23:37:43.556Z,99.90
2018-12-26T23:39:58.556Z,99.90
2018-12-26T23:42:13.320Z,99.90
2018-12-26T23:44:28.237Z,99.90
2018-12-26T23:46:43.166Z,99.90
2018-12-26T23:48:58.165Z,99.90
2018-12-26T23:51:12.969Z,99.90
2018-12-26T23:53:27.888Z,99.90
2018-12-26T23:55:42.845Z,99.90
2018-12-26T23:57:57.788Z,99.90
